CFG1VT LGKL-EDDF
Flight info
| Callsign | CFG1VT |
|---|---|
| Flight time | N/A |
| Altitude | 34000 |
| Route | ANEPI DCT TRL UN1 ARA DCT VJOSA DCT OVVER DCT PETAK DCT GLOMY DCT ELTIB DCT TUPUS DCT GORPA DCT SIMBA DCT AKINI T161 DEBHI SPESA5B |
| Aircraft | A321/M-SDE3FGIJ1LORVWXYZ/LB1 |
Departure
| Time | 2026-05-05 18:57 |
|---|---|
| Airport | Kalamata Airport (LGKL) |
Arrival
| Time | N/A |
|---|---|
| Airport | Frankfurt Main Airport (EDDF) |
| Time | Latitude | Longitude | Altitude | Speed | Heading |
|---|---|---|---|---|---|
| 2026-05-05 18:22 | 37.05463 | 22.03353 | 35 ft | 0 kts | 120° |
| 2026-05-05 18:52 | 37.05461 | 22.03355 | 35 ft | 1 kts | 134° |
| 2026-05-05 18:52 | 37.05455 | 22.03355 | 35 ft | 0 kts | 171° |
| 2026-05-05 18:53 | 37.05452 | 22.03346 | 35 ft | 3 kts | 253° |
| 2026-05-05 18:53 | 37.05468 | 22.03319 | 35 ft | 4 kts | 313° |
| 2026-05-05 18:53 | 37.05483 | 22.03291 | 35 ft | 4 kts | 288° |
| 2026-05-05 18:53 | 37.05492 | 22.03222 | 34 ft | 9 kts | 299° |
| 2026-05-05 18:54 | 37.05515 | 22.03153 | 32 ft | 8 kts | 285° |
| 2026-05-05 18:54 | 37.05529 | 22.03091 | 33 ft | 7 kts | 285° |
| 2026-05-05 18:54 | 37.05540 | 22.03041 | 35 ft | 5 kts | 285° |
| 2026-05-05 18:54 | 37.05541 | 22.03001 | 34 ft | 4 kts | 261° |
| 2026-05-05 18:55 | 37.05538 | 22.02979 | 34 ft | 2 kts | 261° |
| 2026-05-05 18:55 | 37.05537 | 22.02969 | 34 ft | 1 kts | 261° |
| 2026-05-05 18:55 | 37.05533 | 22.02936 | 34 ft | 8 kts | 261° |
| 2026-05-05 18:55 | 37.05531 | 22.02870 | 33 ft | 7 kts | 286° |
| 2026-05-05 18:56 | 37.05583 | 22.02833 | 33 ft | 12 kts | 356° |
| 2026-05-05 18:56 | 37.05674 | 22.02813 | 31 ft | 14 kts | 348° |
| 2026-05-05 18:56 | 37.05798 | 22.02782 | 30 ft | 36 kts | 349° |
| 2026-05-05 18:56 | 37.06281 | 22.02671 | 32 ft | 103 kts | 349° |
| 2026-05-05 18:57 | 37.07162 | 22.02463 | 33 ft | 153 kts | 349° |
| 2026-05-05 18:57 | 37.08295 | 22.02214 | 362 ft | 167 kts | 348° |
| 2026-05-05 18:57 | 37.09415 | 22.01860 | 994 ft | 166 kts | 343° |
| 2026-05-05 18:57 | 37.10524 | 22.01452 | 1505 ft | 169 kts | 342° |
| 2026-05-05 18:58 | 37.11716 | 22.01016 | 1693 ft | 188 kts | 343° |
| 2026-05-05 18:58 | 37.13032 | 22.00539 | 1836 ft | 206 kts | 343° |
| 2026-05-05 18:58 | 37.14458 | 22.00029 | 1978 ft | 220 kts | 343° |
| 2026-05-05 18:58 | 37.15948 | 21.99372 | 2117 ft | 237 kts | 337° |
| 2026-05-05 18:59 | 37.17543 | 21.98517 | 2366 ft | 258 kts | 335° |
| 2026-05-05 18:59 | 37.19195 | 21.97589 | 3061 ft | 262 kts | 335° |
| 2026-05-05 18:59 | 37.20861 | 21.96643 | 3829 ft | 264 kts | 334° |
| 2026-05-05 18:59 | 37.22546 | 21.95688 | 4580 ft | 267 kts | 335° |
| 2026-05-05 19:00 | 37.24246 | 21.94730 | 5311 ft | 269 kts | 335° |
| 2026-05-05 19:00 | 37.25967 | 21.93765 | 6032 ft | 272 kts | 335° |
| 2026-05-05 19:00 | 37.27706 | 21.92795 | 6722 ft | 275 kts | 335° |
| 2026-05-05 19:00 | 37.29466 | 21.91813 | 7417 ft | 278 kts | 335° |
| 2026-05-05 19:01 | 37.31241 | 21.90822 | 8090 ft | 281 kts | 335° |
| 2026-05-05 19:01 | 37.33039 | 21.89816 | 8757 ft | 284 kts | 335° |
| 2026-05-05 19:01 | 37.34851 | 21.88800 | 9422 ft | 287 kts | 335° |
| 2026-05-05 19:01 | 37.36684 | 21.87773 | 10078 ft | 289 kts | 335° |
| 2026-05-05 19:02 | 37.38556 | 21.86724 | 10443 ft | 304 kts | 335° |
| 2026-05-05 19:02 | 37.40556 | 21.85605 | 10583 ft | 325 kts | 335° |
| 2026-05-05 19:02 | 37.42682 | 21.84412 | 10708 ft | 345 kts | 335° |
| 2026-05-05 19:02 | 37.44923 | 21.83155 | 10983 ft | 358 kts | 335° |
| 2026-05-05 19:03 | 37.47219 | 21.81869 | 11512 ft | 363 kts | 335° |
| 2026-05-05 19:03 | 37.49532 | 21.80573 | 12097 ft | 366 kts | 335° |
| 2026-05-05 19:03 | 37.51872 | 21.79260 | 12689 ft | 369 kts | 335° |
| 2026-05-05 19:03 | 37.54224 | 21.77936 | 13260 ft | 372 kts | 335° |
| 2026-05-05 19:04 | 37.56600 | 21.76598 | 13813 ft | 376 kts | 335° |
| 2026-05-05 19:04 | 37.58964 | 21.75267 | 14370 ft | 379 kts | 335° |
| 2026-05-05 19:04 | 37.61380 | 21.73906 | 14902 ft | 382 kts | 335° |
| 2026-05-05 19:04 | 37.63814 | 21.72538 | 15426 ft | 385 kts | 335° |
| 2026-05-05 19:05 | 37.66264 | 21.71156 | 15933 ft | 387 kts | 335° |
| 2026-05-05 19:05 | 37.68730 | 21.69766 | 16429 ft | 390 kts | 335° |
| 2026-05-05 19:05 | 37.71218 | 21.68361 | 16915 ft | 393 kts | 335° |
| 2026-05-05 19:05 | 37.73727 | 21.66940 | 17387 ft | 396 kts | 335° |
| 2026-05-05 19:06 | 37.76249 | 21.65510 | 17844 ft | 399 kts | 335° |
| 2026-05-05 19:06 | 37.78784 | 21.64071 | 18280 ft | 401 kts | 335° |
| 2026-05-05 19:06 | 37.81343 | 21.62620 | 18728 ft | 404 kts | 335° |
| 2026-05-05 19:06 | 37.83906 | 21.61167 | 19158 ft | 406 kts | 335° |
| 2026-05-05 19:07 | 37.86499 | 21.59699 | 19580 ft | 409 kts | 335° |
| 2026-05-05 19:07 | 37.89103 | 21.58226 | 19993 ft | 411 kts | 335° |
| 2026-05-05 19:07 | 37.91724 | 21.56740 | 20385 ft | 414 kts | 335° |
| 2026-05-05 19:07 | 37.94357 | 21.55243 | 20778 ft | 416 kts | 335° |
| 2026-05-05 19:08 | 37.97010 | 21.53729 | 21148 ft | 419 kts | 335° |
| 2026-05-05 19:08 | 37.99670 | 21.52210 | 21547 ft | 421 kts | 335° |
| 2026-05-05 19:08 | 38.02352 | 21.50675 | 21928 ft | 423 kts | 335° |
| 2026-05-05 19:08 | 38.05046 | 21.49135 | 22302 ft | 426 kts | 335° |
| 2026-05-05 19:09 | 38.07755 | 21.47589 | 22680 ft | 428 kts | 335° |
| 2026-05-05 19:09 | 38.10475 | 21.46037 | 23032 ft | 430 kts | 335° |
| 2026-05-05 19:09 | 38.13216 | 21.44469 | 23370 ft | 433 kts | 335° |
| 2026-05-05 19:09 | 38.15968 | 21.42895 | 23722 ft | 435 kts | 335° |
| 2026-05-05 19:10 | 38.18741 | 21.41328 | 24037 ft | 437 kts | 335° |
| 2026-05-05 19:10 | 38.21537 | 21.39770 | 24358 ft | 439 kts | 336° |
| 2026-05-05 19:10 | 38.24350 | 21.38218 | 24674 ft | 442 kts | 336° |
| 2026-05-05 19:10 | 38.27171 | 21.36666 | 24981 ft | 444 kts | 336° |
| 2026-05-05 19:11 | 38.30011 | 21.35099 | 25295 ft | 446 kts | 336° |
| 2026-05-05 19:11 | 38.32826 | 21.33541 | 25587 ft | 448 kts | 336° |
| 2026-05-05 19:11 | 38.35724 | 21.31933 | 25883 ft | 450 kts | 336° |
| 2026-05-05 19:11 | 38.38558 | 21.30354 | 26165 ft | 452 kts | 336° |
| 2026-05-05 19:12 | 38.41442 | 21.28742 | 26448 ft | 453 kts | 336° |
| 2026-05-05 19:12 | 38.44335 | 21.27124 | 26717 ft | 455 kts | 336° |
| 2026-05-05 19:12 | 38.47242 | 21.25497 | 26976 ft | 457 kts | 336° |
| 2026-05-05 19:12 | 38.50163 | 21.23866 | 27232 ft | 459 kts | 336° |
| 2026-05-05 19:13 | 38.53092 | 21.22229 | 27482 ft | 461 kts | 336° |
| 2026-05-05 19:13 | 38.56032 | 21.20585 | 27734 ft | 462 kts | 336° |
| 2026-05-05 19:13 | 38.58987 | 21.18932 | 27984 ft | 464 kts | 336° |
| 2026-05-05 19:13 | 38.61950 | 21.17273 | 28234 ft | 466 kts | 336° |
| 2026-05-05 19:14 | 38.64922 | 21.15601 | 28475 ft | 468 kts | 335° |
| 2026-05-05 19:14 | 38.67904 | 21.13921 | 28710 ft | 469 kts | 335° |
| 2026-05-05 19:14 | 38.70889 | 21.12242 | 29025 ft | 468 kts | 335° |
| 2026-05-05 19:14 | 38.73870 | 21.10564 | 29343 ft | 467 kts | 335° |
| 2026-05-05 19:15 | 38.76844 | 21.08888 | 29647 ft | 467 kts | 335° |
| 2026-05-05 19:15 | 38.79814 | 21.07215 | 29941 ft | 466 kts | 335° |
| 2026-05-05 19:15 | 38.82779 | 21.05544 | 30230 ft | 465 kts | 335° |
| 2026-05-05 19:15 | 38.85747 | 21.03870 | 30517 ft | 465 kts | 335° |
| 2026-05-05 19:16 | 38.88705 | 21.02198 | 30812 ft | 464 kts | 335° |
| 2026-05-05 19:16 | 38.91656 | 21.00525 | 31096 ft | 464 kts | 335° |
| 2026-05-05 19:16 | 38.94604 | 20.98851 | 31374 ft | 463 kts | 335° |
| 2026-05-05 19:16 | 38.97550 | 20.97175 | 31645 ft | 463 kts | 335° |
| 2026-05-05 19:17 | 39.00490 | 20.95501 | 31923 ft | 462 kts | 335° |
| 2026-05-05 19:17 | 39.03424 | 20.93828 | 32213 ft | 461 kts | 335° |
| 2026-05-05 19:17 | 39.06360 | 20.92155 | 32487 ft | 461 kts | 335° |
| 2026-05-05 19:17 | 39.09290 | 20.90489 | 32749 ft | 460 kts | 335° |
| 2026-05-05 19:18 | 39.12219 | 20.88828 | 33015 ft | 460 kts | 335° |
| 2026-05-05 19:18 | 39.15151 | 20.87161 | 33277 ft | 459 kts | 335° |
| 2026-05-05 19:18 | 39.18066 | 20.85497 | 33532 ft | 459 kts | 335° |
| 2026-05-05 19:18 | 39.20985 | 20.83828 | 33764 ft | 458 kts | 335° |
| 2026-05-05 19:19 | 39.23896 | 20.82160 | 34010 ft | 458 kts | 335° |
| 2026-05-05 19:19 | 39.26809 | 20.80489 | 34099 ft | 457 kts | 335° |
| 2026-05-05 19:19 | 39.32591 | 20.77171 | 34109 ft | 454 kts | 335° |
| 2026-05-05 19:20 | 39.38323 | 20.73880 | 34109 ft | 453 kts | 335° |
| 2026-05-05 19:20 | 39.44085 | 20.70571 | 34109 ft | 453 kts | 335° |
| 2026-05-05 19:21 | 39.49844 | 20.67255 | 34109 ft | 453 kts | 335° |
| 2026-05-05 19:21 | 39.55602 | 20.63924 | 34108 ft | 453 kts | 335° |
| 2026-05-05 19:22 | 39.61361 | 20.60588 | 34107 ft | 453 kts | 335° |
| 2026-05-05 19:22 | 39.67122 | 20.57253 | 34107 ft | 453 kts | 335° |
| 2026-05-05 19:23 | 39.72872 | 20.53903 | 34107 ft | 453 kts | 335° |
| 2026-05-05 19:23 | 39.78625 | 20.50556 | 34108 ft | 453 kts | 335° |
| 2026-05-05 19:24 | 39.84387 | 20.47207 | 34109 ft | 453 kts | 335° |
| 2026-05-05 19:24 | 39.90143 | 20.43845 | 34111 ft | 454 kts | 335° |
| 2026-05-05 19:25 | 39.95900 | 20.40476 | 34112 ft | 454 kts | 335° |
| 2026-05-05 19:25 | 40.01629 | 20.37002 | 34115 ft | 454 kts | 333° |
| 2026-05-05 19:26 | 40.07230 | 20.33211 | 34115 ft | 453 kts | 331° |
| 2026-05-05 19:26 | 40.11853 | 20.29995 | 34114 ft | 453 kts | 332° |
| 2026-05-05 19:27 | 40.17436 | 20.26167 | 34114 ft | 453 kts | 332° |
| 2026-05-05 19:27 | 40.23046 | 20.22386 | 34116 ft | 454 kts | 332° |
| 2026-05-05 19:28 | 40.28668 | 20.18625 | 34117 ft | 454 kts | 332° |
| 2026-05-05 19:28 | 40.34284 | 20.14850 | 34117 ft | 454 kts | 332° |
| 2026-05-05 19:29 | 40.39887 | 20.11037 | 34118 ft | 453 kts | 332° |
| 2026-05-05 19:29 | 40.45477 | 20.07210 | 34117 ft | 453 kts | 332° |
| 2026-05-05 19:30 | 40.51078 | 20.03386 | 34118 ft | 453 kts | 332° |
| 2026-05-05 19:30 | 40.56718 | 19.99676 | 34118 ft | 454 kts | 335° |
| 2026-05-05 19:31 | 40.62533 | 19.96430 | 34118 ft | 454 kts | 338° |
| 2026-05-05 19:31 | 40.68395 | 19.93348 | 34117 ft | 454 kts | 337° |
| 2026-05-05 19:32 | 40.74225 | 19.90156 | 34115 ft | 453 kts | 336° |
| 2026-05-05 19:32 | 40.80027 | 19.86890 | 34114 ft | 453 kts | 336° |
| 2026-05-05 19:33 | 40.85831 | 19.83616 | 34112 ft | 453 kts | 336° |
| 2026-05-05 19:33 | 40.91629 | 19.80350 | 34111 ft | 453 kts | 336° |
| 2026-05-05 19:34 | 40.97434 | 19.77090 | 34108 ft | 453 kts | 336° |
| 2026-05-05 19:35 | 41.06125 | 19.72190 | 34104 ft | 453 kts | 336° |
| 2026-05-05 19:35 | 41.11909 | 19.68919 | 34101 ft | 453 kts | 336° |
| 2026-05-05 19:36 | 41.17709 | 19.65637 | 34100 ft | 453 kts | 336° |
| 2026-05-05 19:36 | 41.23500 | 19.62349 | 34099 ft | 453 kts | 336° |
| 2026-05-05 19:37 | 41.29252 | 19.59078 | 34099 ft | 453 kts | 336° |
| 2026-05-05 19:37 | 41.35048 | 19.55779 | 34100 ft | 453 kts | 336° |
| 2026-05-05 19:38 | 41.40841 | 19.52477 | 34102 ft | 453 kts | 336° |
| 2026-05-05 19:38 | 41.46631 | 19.49166 | 34104 ft | 453 kts | 336° |
| 2026-05-05 19:39 | 41.52422 | 19.45840 | 34104 ft | 453 kts | 336° |
| 2026-05-05 19:39 | 41.58212 | 19.42528 | 34105 ft | 453 kts | 336° |
| 2026-05-05 19:40 | 41.63500 | 19.39487 | 34105 ft | 453 kts | 336° |
| 2026-05-05 19:40 | 41.69288 | 19.36150 | 34106 ft | 453 kts | 336° |
| 2026-05-05 19:41 | 41.74993 | 19.32857 | 34107 ft | 453 kts | 336° |
| 2026-05-05 19:41 | 41.80476 | 19.28762 | 34107 ft | 452 kts | 326° |
| 2026-05-05 19:42 | 41.85702 | 19.24072 | 34107 ft | 452 kts | 326° |
| 2026-05-05 19:42 | 41.90939 | 19.19385 | 34109 ft | 452 kts | 326° |
| 2026-05-05 19:43 | 41.96174 | 19.14685 | 34111 ft | 453 kts | 326° |
| 2026-05-05 19:43 | 42.01409 | 19.09969 | 34113 ft | 453 kts | 326° |
| 2026-05-05 19:44 | 42.06637 | 19.05251 | 34115 ft | 453 kts | 326° |
| 2026-05-05 19:44 | 42.11866 | 19.00521 | 34117 ft | 453 kts | 326° |
| 2026-05-05 19:45 | 42.17101 | 18.95782 | 34118 ft | 453 kts | 326° |
| 2026-05-05 19:45 | 42.22330 | 18.91046 | 34119 ft | 453 kts | 326° |
| 2026-05-05 19:46 | 42.27559 | 18.86301 | 34119 ft | 453 kts | 325° |
| 2026-05-05 19:46 | 42.32783 | 18.81544 | 34118 ft | 453 kts | 325° |
| 2026-05-05 19:47 | 42.38002 | 18.76774 | 34117 ft | 453 kts | 325° |
| 2026-05-05 19:47 | 42.43211 | 18.72000 | 34115 ft | 452 kts | 325° |
| 2026-05-05 19:48 | 42.48390 | 18.67252 | 34113 ft | 452 kts | 325° |
| 2026-05-05 19:48 | 42.53595 | 18.62478 | 34111 ft | 452 kts | 325° |
| 2026-05-05 19:49 | 42.58796 | 18.57693 | 34108 ft | 452 kts | 325° |
| 2026-05-05 19:49 | 42.63998 | 18.52886 | 34108 ft | 452 kts | 325° |
| 2026-05-05 19:50 | 42.69203 | 18.48073 | 34110 ft | 452 kts | 325° |
| 2026-05-05 19:50 | 42.74403 | 18.43256 | 34112 ft | 452 kts | 325° |
| 2026-05-05 19:51 | 42.79601 | 18.38435 | 34111 ft | 452 kts | 325° |
| 2026-05-05 19:51 | 42.84801 | 18.33606 | 34111 ft | 452 kts | 325° |
| 2026-05-05 19:52 | 42.89993 | 18.28765 | 34113 ft | 452 kts | 325° |
| 2026-05-05 19:52 | 42.95187 | 18.23908 | 34114 ft | 452 kts | 325° |
| 2026-05-05 19:53 | 43.00376 | 18.19054 | 34114 ft | 452 kts | 325° |
| 2026-05-05 19:53 | 43.05574 | 18.14193 | 34113 ft | 452 kts | 325° |
| 2026-05-05 19:54 | 43.10756 | 18.09324 | 34113 ft | 452 kts | 325° |
| 2026-05-05 19:54 | 43.15943 | 18.04437 | 34116 ft | 453 kts | 325° |
| 2026-05-05 19:55 | 43.21129 | 17.99540 | 34117 ft | 453 kts | 325° |
| 2026-05-05 19:55 | 43.26277 | 17.94663 | 34118 ft | 453 kts | 325° |
| 2026-05-05 19:56 | 43.31456 | 17.89754 | 34118 ft | 452 kts | 324° |
| 2026-05-05 19:56 | 43.36635 | 17.84833 | 34116 ft | 452 kts | 324° |
| 2026-05-05 19:57 | 43.41803 | 17.79917 | 34115 ft | 452 kts | 324° |
| 2026-05-05 19:57 | 43.46973 | 17.74985 | 34111 ft | 452 kts | 325° |
| 2026-05-05 19:57 | 43.49538 | 17.72539 | 33319 ft | 447 kts | 324° |
| 2026-05-05 19:58 | 43.52117 | 17.70074 | 31407 ft | 458 kts | 324° |
| 2026-05-05 19:58 | 43.54760 | 17.67542 | 29451 ft | 468 kts | 324° |
| 2026-05-05 19:58 | 43.57425 | 17.64916 | 27468 ft | 473 kts | 323° |
| 2026-05-05 19:58 | 43.60040 | 17.62138 | 25412 ft | 477 kts | 321° |
| 2026-05-05 19:59 | 43.62595 | 17.59251 | 23729 ft | 472 kts | 320° |
| 2026-05-05 19:59 | 43.65088 | 17.56350 | 22080 ft | 465 kts | 319° |
| 2026-05-05 19:59 | 43.67531 | 17.53491 | 20472 ft | 456 kts | 319° |
| 2026-05-05 19:59 | 43.69939 | 17.50694 | 18929 ft | 447 kts | 320° |
| 2026-05-05 20:00 | 43.72304 | 17.47983 | 17418 ft | 437 kts | 320° |
| 2026-05-05 20:00 | 43.74635 | 17.45344 | 15904 ft | 428 kts | 320° |
| 2026-05-05 20:00 | 43.76911 | 17.42781 | 14519 ft | 417 kts | 320° |
| 2026-05-05 20:00 | 43.79142 | 17.40273 | 13049 ft | 408 kts | 320° |
| 2026-05-05 20:01 | 43.81323 | 17.37819 | 11618 ft | 401 kts | 320° |
| 2026-05-05 20:01 | 43.83483 | 17.35382 | 10782 ft | 400 kts | 320° |
| 2026-05-05 20:01 | 43.85632 | 17.32949 | 10407 ft | 399 kts | 320° |
| 2026-05-05 20:01 | 43.87790 | 17.30501 | 10215 ft | 400 kts | 320° |
| 2026-05-05 20:02 | 43.89793 | 17.27859 | 10088 ft | 397 kts | 307° |
| 2026-05-05 20:02 | 43.91092 | 17.24513 | 10106 ft | 396 kts | 288° |
| 2026-05-05 20:02 | 43.91525 | 17.20756 | 10110 ft | 396 kts | 269° |
| 2026-05-05 20:02 | 43.91042 | 17.17017 | 10111 ft | 396 kts | 250° |
| 2026-05-05 20:03 | 43.89778 | 17.13701 | 10106 ft | 397 kts | 233° |
| 2026-05-05 20:03 | 43.88027 | 17.10731 | 10109 ft | 397 kts | 230° |
| 2026-05-05 20:03 | 43.86481 | 17.08190 | 10109 ft | 397 kts | 230° |
| 2026-05-05 20:03 | 43.84700 | 17.05270 | 10110 ft | 397 kts | 230° |
| 2026-05-05 20:04 | 43.82913 | 17.02344 | 10110 ft | 397 kts | 230° |
| 2026-05-05 20:04 | 43.81131 | 16.99430 | 10109 ft | 397 kts | 230° |
| 2026-05-05 20:04 | 43.79358 | 16.96531 | 9717 ft | 392 kts | 230° |
| 2026-05-05 20:04 | 43.77598 | 16.93657 | 9190 ft | 390 kts | 230° |
| 2026-05-05 20:05 | 43.75846 | 16.90796 | 9020 ft | 390 kts | 230° |
| 2026-05-05 20:05 | 43.74090 | 16.87932 | 9037 ft | 391 kts | 230° |
| 2026-05-05 20:05 | 43.72330 | 16.85060 | 9034 ft | 391 kts | 230° |
| 2026-05-05 20:05 | 43.70572 | 16.82196 | 9038 ft | 391 kts | 230° |
| 2026-05-05 20:06 | 43.68810 | 16.79326 | 9035 ft | 391 kts | 230° |
| 2026-05-05 20:06 | 43.67049 | 16.76459 | 9034 ft | 391 kts | 230° |
| 2026-05-05 20:06 | 43.65288 | 16.73594 | 9033 ft | 391 kts | 230° |
| 2026-05-05 20:06 | 43.63531 | 16.70736 | 9033 ft | 391 kts | 230° |
| 2026-05-05 20:07 | 43.61772 | 16.67877 | 9027 ft | 385 kts | 230° |
| 2026-05-05 20:07 | 43.60131 | 16.65215 | 9027 ft | 343 kts | 230° |
| 2026-05-05 20:07 | 43.58666 | 16.62843 | 9026 ft | 307 kts | 230° |
| 2026-05-05 20:07 | 43.57338 | 16.60697 | 9034 ft | 289 kts | 230° |
| 2026-05-05 20:08 | 43.56043 | 16.58607 | 9032 ft | 285 kts | 230° |
| 2026-05-05 20:08 | 43.54763 | 16.56543 | 8828 ft | 282 kts | 230° |
| 2026-05-05 20:08 | 43.53492 | 16.54496 | 8451 ft | 280 kts | 230° |
| 2026-05-05 20:08 | 43.52234 | 16.52467 | 8087 ft | 279 kts | 230° |
| 2026-05-05 20:09 | 43.50974 | 16.50437 | 7712 ft | 277 kts | 230° |
| 2026-05-05 20:09 | 43.49723 | 16.48424 | 7340 ft | 276 kts | 230° |
| 2026-05-05 20:09 | 43.48481 | 16.46424 | 6966 ft | 274 kts | 230° |
| 2026-05-05 20:09 | 43.47245 | 16.44437 | 6594 ft | 273 kts | 230° |
| 2026-05-05 20:10 | 43.46015 | 16.42460 | 6210 ft | 271 kts | 230° |
| 2026-05-05 20:10 | 43.44806 | 16.40518 | 5844 ft | 270 kts | 230° |
| 2026-05-05 20:10 | 43.43738 | 16.38420 | 5464 ft | 267 kts | 242° |
| 2026-05-05 20:10 | 43.42914 | 16.36156 | 5093 ft | 259 kts | 245° |
| 2026-05-05 20:11 | 43.42170 | 16.34019 | 4877 ft | 238 kts | 245° |
| 2026-05-05 20:11 | 43.41468 | 16.31993 | 4409 ft | 232 kts | 245° |
| 2026-05-05 20:11 | 43.40778 | 16.30001 | 3871 ft | 230 kts | 245° |
| 2026-05-05 20:11 | 43.40094 | 16.28025 | 3327 ft | 228 kts | 245° |
| 2026-05-05 20:12 | 43.39420 | 16.26062 | 2907 ft | 225 kts | 248° |
| 2026-05-05 20:12 | 43.39004 | 16.24008 | 2852 ft | 219 kts | 258° |
| 2026-05-05 20:12 | 43.38731 | 16.22030 | 2826 ft | 204 kts | 259° |
| 2026-05-05 20:12 | 43.38486 | 16.20141 | 2828 ft | 198 kts | 260° |
| 2026-05-05 20:13 | 43.38299 | 16.18280 | 2827 ft | 195 kts | 272° |
| 2026-05-05 20:13 | 43.38657 | 16.16540 | 2825 ft | 189 kts | 302° |
| 2026-05-05 20:13 | 43.39594 | 16.15308 | 2834 ft | 189 kts | 332° |
| 2026-05-05 20:13 | 43.40843 | 16.14731 | 2847 ft | 195 kts | 343° |
| 2026-05-05 20:14 | 43.42203 | 16.14206 | 2843 ft | 208 kts | 345° |
| 2026-05-05 20:14 | 43.43654 | 16.14064 | 2730 ft | 210 kts | 6° |
| 2026-05-05 20:14 | 43.45009 | 16.14642 | 2553 ft | 199 kts | 28° |
| 2026-05-05 20:14 | 43.46052 | 16.15770 | 2374 ft | 184 kts | 48° |
| 2026-05-05 20:15 | 43.46811 | 16.17100 | 2134 ft | 170 kts | 53° |
| 2026-05-05 20:15 | 43.47508 | 16.18347 | 1894 ft | 161 kts | 53° |
| 2026-05-05 20:15 | 43.48173 | 16.19537 | 1710 ft | 157 kts | 53° |
| 2026-05-05 20:15 | 43.48835 | 16.20721 | 1499 ft | 155 kts | 53° |
| 2026-05-05 20:16 | 43.49489 | 16.21894 | 1294 ft | 154 kts | 54° |
| 2026-05-05 20:16 | 43.50140 | 16.23059 | 1092 ft | 153 kts | 54° |
| 2026-05-05 20:16 | 43.50807 | 16.24254 | 1025 ft | 164 kts | 54° |
| 2026-05-05 20:16 | 43.51224 | 16.25140 | 1115 ft | 169 kts | 65° |
| 2026-05-05 20:17 | 43.51545 | 16.26777 | 1222 ft | 184 kts | 88° |
| 2026-05-05 20:17 | 43.51297 | 16.28505 | 1533 ft | 190 kts | 114° |
| 2026-05-05 20:17 | 43.50468 | 16.29889 | 1924 ft | 191 kts | 151° |
| 2026-05-05 20:17 | 43.49170 | 16.30267 | 2184 ft | 200 kts | 188° |
| 2026-05-05 20:18 | 43.47913 | 16.29413 | 2522 ft | 204 kts | 224° |
| 2026-05-05 20:18 | 43.47011 | 16.27923 | 2802 ft | 207 kts | 235° |
| 2026-05-05 20:18 | 43.46223 | 16.26271 | 2830 ft | 206 kts | 238° |
| 2026-05-05 20:18 | 43.45458 | 16.24575 | 2831 ft | 206 kts | 239° |
| 2026-05-05 20:19 | 43.44669 | 16.22963 | 2833 ft | 206 kts | 235° |
| 2026-05-05 20:19 | 43.43837 | 16.21363 | 2835 ft | 206 kts | 235° |
| 2026-05-05 20:19 | 43.43001 | 16.19765 | 2835 ft | 206 kts | 235° |
| 2026-05-05 20:19 | 43.42229 | 16.18109 | 2829 ft | 206 kts | 249° |
| 2026-05-05 20:20 | 43.42180 | 16.16187 | 2831 ft | 206 kts | 287° |
| 2026-05-05 20:20 | 43.43011 | 16.14613 | 2703 ft | 208 kts | 325° |
| 2026-05-05 20:20 | 43.44399 | 16.14154 | 2608 ft | 210 kts | 6° |
| 2026-05-05 20:20 | 43.45642 | 16.15020 | 2450 ft | 199 kts | 47° |
| 2026-05-05 20:21 | 43.46482 | 16.16484 | 2225 ft | 191 kts | 53° |
| 2026-05-05 20:21 | 43.47267 | 16.17908 | 2004 ft | 184 kts | 53° |
| 2026-05-05 20:21 | 43.48039 | 16.19296 | 1744 ft | 181 kts | 53° |
| 2026-05-05 20:21 | 43.48777 | 16.20617 | 1516 ft | 166 kts | 53° |
| 2026-05-05 20:22 | 43.49458 | 16.21837 | 1300 ft | 157 kts | 54° |
| 2026-05-05 20:22 | 43.50117 | 16.23018 | 1094 ft | 154 kts | 54° |
| 2026-05-05 20:22 | 43.50763 | 16.24176 | 898 ft | 152 kts | 54° |
| 2026-05-05 20:22 | 43.51403 | 16.25323 | 686 ft | 150 kts | 54° |
| 2026-05-05 20:23 | 43.52044 | 16.26457 | 450 ft | 149 kts | 54° |
| 2026-05-05 20:23 | 43.52666 | 16.27592 | 241 ft | 148 kts | 54° |
| 2026-05-05 20:23 | 43.53292 | 16.28711 | 107 ft | 147 kts | 53° |
| 2026-05-05 20:23 | 43.53856 | 16.29724 | 86 ft | 87 kts | 53° |
| 2026-05-05 20:24 | 43.53979 | 16.29949 | 81 ft | 10 kts | 53° |
| 2026-05-05 20:24 | 43.54025 | 16.30035 | 68 ft | 12 kts | 53° |
| 2026-05-05 20:24 | 43.54017 | 16.30103 | 70 ft | 9 kts | 169° |
| 2026-05-05 20:24 | 43.53958 | 16.30079 | 70 ft | 9 kts | 199° |
| 2026-05-05 20:25 | 43.53908 | 16.30054 | 76 ft | 6 kts | 207° |
| 2026-05-05 20:25 | 43.53882 | 16.30014 | 74 ft | 8 kts | 231° |
| 2026-05-05 20:25 | 43.53824 | 16.29913 | 82 ft | 17 kts | 232° |
| 2026-05-05 20:25 | 43.53788 | 16.29870 | 85 ft | 2 kts | 136° |
| 2026-05-05 20:26 | 43.53773 | 16.29907 | 71 ft | 6 kts | 120° |
| 2026-05-05 20:26 | 43.53761 | 16.29939 | 68 ft | 0 kts | 114° |